createdAt,value
2018-12-29T00:01:06.028Z,91.50
2018-12-29T00:03:34.449Z,91.90
2018-12-29T00:06:02.869Z,92.50
2018-12-29T00:08:31.285Z,92.70
2018-12-29T00:10:59.692Z,92.80
2018-12-29T00:13:28.113Z,92.90
2018-12-29T00:15:56.537Z,93.00
2018-12-29T00:18:25.184Z,93.10
2018-12-29T00:20:53.595Z,93.20
2018-12-29T00:23:22.354Z,93.40
2018-12-29T00:25:50.765Z,93.70
2018-12-29T00:28:19.189Z,93.80
2018-12-29T00:30:47.597Z,94.00
2018-12-29T00:33:16.291Z,94.20
2018-12-29T00:35:45.022Z,94.40
2018-12-29T00:38:13.481Z,94.50
2018-12-29T00:40:42.236Z,94.80
2018-12-29T00:43:10.885Z,95.00
2018-12-29T00:45:39.305Z,95.20
2018-12-29T00:48:07.720Z,95.20
2018-12-29T00:50:36.154Z,95.00
2018-12-29T00:53:04.783Z,95.00
2018-12-29T00:55:33.249Z,95.00
2018-12-29T00:58:01.903Z,95.10
2018-12-29T01:00:30.325Z,95.10
2018-12-29T01:02:58.735Z,95.20
2018-12-29T01:05:27.410Z,95.30
2018-12-29T01:07:56.079Z,95.30
2018-12-29T01:10:24.534Z,95.40
2018-12-29T01:12:52.958Z,95.40
2018-12-29T01:15:21.597Z,95.40
2018-12-29T01:17:50.054Z,95.50
2018-12-29T01:20:18.747Z,95.50
2018-12-29T01:22:47.503Z,95.70
2018-12-29T01:25:16.180Z,95.80
2018-12-29T01:27:44.593Z,96.00
2018-12-29T01:30:13.023Z,96.30
2018-12-29T01:32:41.450Z,96.30
2018-12-29T01:35:10.122Z,96.40
2018-12-29T01:37:38.822Z,96.40
2018-12-29T01:40:07.668Z,96.70
2018-12-29T01:42:36.117Z,96.50
2018-12-29T01:45:05.572Z,96.60
2018-12-29T01:47:33.981Z,96.50
2018-12-29T01:50:02.391Z,96.60
2018-12-29T01:52:30.817Z,96.60
2018-12-29T01:54:59.493Z,96.60
2018-12-29T01:57:27.950Z,96.60
2018-12-29T01:59:56.365Z,96.60
2018-12-29T02:02:24.784Z,96.70
2018-12-29T02:04:53.206Z,96.70
2018-12-29T02:07:21.625Z,96.80
2018-12-29T02:09:50.289Z,96.70
2018-12-29T02:12:18.709Z,96.80
2018-12-29T02:14:47.366Z,97.00
2018-12-29T02:17:15.786Z,97.00
2018-12-29T02:19:44.615Z,97.10
2018-12-29T02:22:13.073Z,97.20
2018-12-29T02:24:41.490Z,97.30
2018-12-29T02:27:09.914Z,97.40
2018-12-29T02:29:38.329Z,97.50
2018-12-29T02:32:06.749Z,97.50
2018-12-29T02:34:35.414Z,97.60
2018-12-29T02:37:03.833Z,97.60
2018-12-29T02:39:32.494Z,97.80
2018-12-29T02:42:01.127Z,98.00
2018-12-29T02:44:29.578Z,98.00
2018-12-29T02:46:58.242Z,98.00
2018-12-29T02:49:26.919Z,97.90
2018-12-29T02:51:55.339Z,97.90
2018-12-29T02:54:23.750Z,97.90
2018-12-29T02:56:52.173Z,98.10
2018-12-29T02:59:20.847Z,98.20
2018-12-29T03:01:49.258Z,98.20
2018-12-29T03:04:17.894Z,98.30
2018-12-29T03:06:46.714Z,98.50
2018-12-29T03:09:15.491Z,98.50
2018-12-29T03:11:44.183Z,98.60
2018-12-29T03:14:12.602Z,98.60
2018-12-29T03:16:41.013Z,98.60
2018-12-29T03:19:09.447Z,98.60
2018-12-29T03:21:37.857Z,98.50
2018-12-29T03:24:06.291Z,98.50
2018-12-29T03:26:34.929Z,98.40
2018-12-29T03:29:03.396Z,98.30
2018-12-29T03:31:32.139Z,98.20
2018-12-29T03:34:00.792Z,98.10
2018-12-29T03:36:29.241Z,98.00
2018-12-29T03:38:57.905Z,98.00
2018-12-29T03:41:26.387Z,98.00
2018-12-29T03:43:54.809Z,97.90
2018-12-29T03:46:23.238Z,98.00
2018-12-29T03:48:51.661Z,98.10
2018-12-29T03:51:20.079Z,98.10
2018-12-29T03:53:48.727Z,98.10
2018-12-29T03:56:17.411Z,98.10
2018-12-29T03:58:45.878Z,98.10
2018-12-29T04:01:14.295Z,98.00
2018-12-29T04:03:42.983Z,97.90
2018-12-29T04:06:11.799Z,97.80
2018-12-29T04:08:40.204Z,97.90
2018-12-29T04:11:08.651Z,98.10
2018-12-29T04:13:37.190Z,98.10
2018-12-29T04:16:05.847Z,98.10
2018-12-29T04:18:34.303Z,98.00
2018-12-29T04:21:03.026Z,98.00
2018-12-29T04:23:31.478Z,97.80
2018-12-29T04:25:59.901Z,97.80
2018-12-29T04:28:28.325Z,97.60
2018-12-29T04:30:56.744Z,97.60
2018-12-29T04:33:25.155Z,97.80
2018-12-29T04:35:53.578Z,97.90
2018-12-29T04:38:22.012Z,98.00
2018-12-29T04:40:50.431Z,98.00
2018-12-29T04:43:18.841Z,98.10
2018-12-29T04:45:47.348Z,98.10
2018-12-29T04:48:15.767Z,98.10
2018-12-29T04:50:44.190Z,98.20
2018-12-29T04:53:12.614Z,98.10
2018-12-29T04:55:41.037Z,98.00
2018-12-29T04:58:09.711Z,97.90
2018-12-29T05:00:38.126Z,97.90
2018-12-29T05:03:06.787Z,97.90
2018-12-29T05:05:35.206Z,98.20
2018-12-29T05:08:03.629Z,98.00
2018-12-29T05:10:32.041Z,98.30
2018-12-29T05:13:00.715Z,98.00
2018-12-29T05:15:29.134Z,98.00
2018-12-29T05:17:57.803Z,98.00
2018-12-29T05:20:26.223Z,98.10
2018-12-29T05:22:54.645Z,98.40
2018-12-29T05:25:23.074Z,98.20
2018-12-29T05:27:51.498Z,98.30
2018-12-29T05:30:20.188Z,98.40
2018-12-29T05:32:48.829Z,98.30
2018-12-29T05:35:17.281Z,98.10
2018-12-29T05:37:45.710Z,98.00
2018-12-29T05:40:14.126Z,98.20
2018-12-29T05:42:42.810Z,98.10
2018-12-29T05:45:11.288Z,98.20
2018-12-29T05:47:39.710Z,98.00
2018-12-29T05:50:08.126Z,98.10
2018-12-29T05:52:36.562Z,98.20
2018-12-29T05:55:05.214Z,98.10
2018-12-29T05:57:33.678Z,98.00
2018-12-29T06:00:02.102Z,97.70
2018-12-29T06:02:30.531Z,97.80
2018-12-29T06:04:59.195Z,97.90
2018-12-29T06:07:27.626Z,98.00
2018-12-29T06:09:56.051Z,98.10
2018-12-29T06:12:24.479Z,98.10
2018-12-29T06:14:52.893Z,98.10
2018-12-29T06:17:21.320Z,98.10
2018-12-29T06:19:49.735Z,98.10
2018-12-29T06:22:18.429Z,98.00
2018-12-29T06:24:46.829Z,98.00
2018-12-29T06:27:15.262Z,97.90
2018-12-29T06:29:44.054Z,98.00
2018-12-29T06:32:12.501Z,98.00
2018-12-29T06:34:40.914Z,98.20
2018-12-29T06:37:09.357Z,97.90
2018-12-29T06:39:37.773Z,97.90
2018-12-29T06:42:06.189Z,97.90
2018-12-29T06:44:34.625Z,97.70
2018-12-29T06:47:03.765Z,97.90
2018-12-29T06:49:32.185Z,98.00
2018-12-29T06:52:00.599Z,97.80
2018-12-29T06:54:29.273Z,97.80
2018-12-29T06:56:57.735Z,97.80
2018-12-29T06:59:26.166Z,97.70
2018-12-29T07:01:54.580Z,97.60
2018-12-29T07:04:22.997Z,97.50
2018-12-29T07:06:51.419Z,97.50
2018-12-29T07:09:20.198Z,97.60
2018-12-29T07:11:48.614Z,97.60
2018-12-29T07:14:17.323Z,97.60
2018-12-29T07:16:45.782Z,97.60
2018-12-29T07:19:14.210Z,97.50
2018-12-29T07:21:42.631Z,97.50
2018-12-29T07:24:11.271Z,97.50
2018-12-29T07:26:39.737Z,97.60
2018-12-29T07:29:08.153Z,97.60
2018-12-29T07:31:36.821Z,97.50
2018-12-29T07:34:05.250Z,97.50
2018-12-29T07:36:33.665Z,97.50
2018-12-29T07:39:02.093Z,97.60
2018-12-29T07:41:30.507Z,97.60
2018-12-29T07:43:58.937Z,97.40
2018-12-29T07:46:27.356Z,97.60
2018-12-29T07:48:55.790Z,97.60
2018-12-29T07:51:24.547Z,97.50
2018-12-29T07:53:53.023Z,97.40
2018-12-29T07:56:21.438Z,97.30
2018-12-29T07:58:49.871Z,97.30
2018-12-29T08:01:18.361Z,97.30
2018-12-29T08:03:46.806Z,97.20
2018-12-29T08:06:15.238Z,97.20
2018-12-29T08:08:43.888Z,97.20
2018-12-29T08:11:12.634Z,97.10
2018-12-29T08:13:41.070Z,97.20
2018-12-29T08:16:09.573Z,97.10
2018-12-29T08:18:38.238Z,97.00
2018-12-29T08:21:06.705Z,97.10
2018-12-29T08:23:35.128Z,97.20
2018-12-29T08:26:03.559Z,97.30
2018-12-29T08:28:31.971Z,97.30
2018-12-29T08:31:00.408Z,97.30
2018-12-29T08:33:29.125Z,97.10
2018-12-29T08:35:57.589Z,97.00
2018-12-29T08:38:26.057Z,97.20
2018-12-29T08:40:54.526Z,97.00
2018-12-29T08:43:22.953Z,96.90
2018-12-29T08:45:51.384Z,96.70
2018-12-29T08:48:20.022Z,96.60
2018-12-29T08:50:48.697Z,96.60
2018-12-29T08:53:17.158Z,96.50
2018-12-29T08:55:45.820Z,96.20
2018-12-29T08:58:14.285Z,96.30
2018-12-29T09:00:42.709Z,96.10
2018-12-29T09:03:11.143Z,95.90
2018-12-29T09:05:39.643Z,95.70
2018-12-29T09:08:08.363Z,95.60
2018-12-29T09:10:36.903Z,95.50
2018-12-29T09:13:05.691Z,95.30
2018-12-29T09:15:34.131Z,95.00
2018-12-29T09:18:02.615Z,94.40
2018-12-29T09:20:31.047Z,94.20
2018-12-29T09:22:59.705Z,94.00
2018-12-29T09:25:28.146Z,93.90
2018-12-29T09:27:56.585Z,93.60
2018-12-29T09:30:25.039Z,93.50
2018-12-29T09:32:53.476Z,93.70
2018-12-29T09:35:21.950Z,93.50
2018-12-29T09:37:50.391Z,93.10
2018-12-29T09:40:18.810Z,93.10
2018-12-29T09:42:47.528Z,93.20
2018-12-29T09:45:16.305Z,93.00
2018-12-29T09:47:44.788Z,92.90
2018-12-29T09:50:13.214Z,92.80
2018-12-29T09:52:41.646Z,93.10
2018-12-29T09:55:10.073Z,92.90
2018-12-29T09:57:38.506Z,93.00
2018-12-29T10:00:08.270Z,93.00
2018-12-29T10:02:36.963Z,92.80
2018-12-29T10:05:05.611Z,92.70
2018-12-29T10:07:34.084Z,92.70
2018-12-29T10:10:02.511Z,92.40
2018-12-29T10:12:30.954Z,92.40
2018-12-29T10:14:59.619Z,92.20
2018-12-29T10:17:28.787Z,92.10
2018-12-29T10:19:57.374Z,92.10
2018-12-29T10:22:26.068Z,91.90
2018-12-29T10:24:54.491Z,91.40
2018-12-29T10:27:23.168Z,91.40
2018-12-29T10:29:51.596Z,91.20
2018-12-29T10:32:20.033Z,90.90
2018-12-29T10:34:48.458Z,90.70
2018-12-29T10:37:16.893Z,90.70
2018-12-29T10:39:45.643Z,90.40
2018-12-29T10:42:14.119Z,90.10
2018-12-29T10:44:42.559Z,89.20
2018-12-29T10:47:11.004Z,88.30
2018-12-29T10:49:39.434Z,87.60
2018-12-29T10:52:07.885Z,85.50
2018-12-29T10:54:36.621Z,85.40
2018-12-29T10:57:05.107Z,85.70
2018-12-29T10:59:33.530Z,84.90
2018-12-29T11:02:01.974Z,84.90
2018-12-29T11:04:30.390Z,84.70
2018-12-29T11:06:59.075Z,85.20
2018-12-29T11:09:27.554Z,86.30
2018-12-29T11:11:56.058Z,86.90
2018-12-29T11:14:24.502Z,87.10
2018-12-29T11:16:52.931Z,87.60
2018-12-29T11:19:21.375Z,87.20
2018-12-29T11:21:50.038Z,86.50
2018-12-29T11:24:18.511Z,84.00
2018-12-29T11:26:46.940Z,83.30
2018-12-29T11:29:15.373Z,83.20
2018-12-29T11:31:43.803Z,84.10
2018-12-29T11:34:12.238Z,84.40
2018-12-29T11:36:40.666Z,84.80
2018-12-29T11:39:09.111Z,85.30
2018-12-29T11:41:37.544Z,85.00
2018-12-29T11:44:05.974Z,85.10
2018-12-29T11:46:34.626Z,85.70
2018-12-29T11:49:03.111Z,85.50
2018-12-29T11:51:31.799Z,85.70
2018-12-29T11:54:00.314Z,85.80
2018-12-29T11:56:28.743Z,85.70
2018-12-29T11:58:57.178Z,85.30
2018-12-29T12:01:25.826Z,85.50
2018-12-29T12:03:54.304Z,85.30
2018-12-29T12:06:22.726Z,84.70
2018-12-29T12:08:51.382Z,84.60
2018-12-29T12:11:19.855Z,85.00
2018-12-29T12:13:48.514Z,85.40
2018-12-29T12:16:16.987Z,85.60
2018-12-29T12:18:45.427Z,84.80
2018-12-29T12:21:14.069Z,85.30
2018-12-29T12:23:42.567Z,84.70
2018-12-29T12:26:10.994Z,85.00
2018-12-29T12:28:39.638Z,85.10
2018-12-29T12:31:08.079Z,84.60
2018-12-29T12:33:36.498Z,84.10
2018-12-29T12:36:05.145Z,82.70
2018-12-29T12:38:33.614Z,81.50
2018-12-29T12:41:02.046Z,81.60
2018-12-29T12:43:30.474Z,81.40
2018-12-29T12:45:59.609Z,81.30
2018-12-29T12:48:28.074Z,81.30
2018-12-29T12:50:57.056Z,81.30
2018-12-29T12:53:25.742Z,81.40
2018-12-29T12:55:54.239Z,80.60
2018-12-29T12:58:22.960Z,80.20
2018-12-29T13:00:51.759Z,80.70
2018-12-29T13:03:20.567Z,80.70
2018-12-29T13:05:49.414Z,80.90
2018-12-29T13:08:17.875Z,80.50
2018-12-29T13:10:46.314Z,80.60
2018-12-29T13:13:14.738Z,80.70
2018-12-29T13:15:43.212Z,81.20
2018-12-29T13:18:13.207Z,81.30
2018-12-29T13:20:41.740Z,82.20
2018-12-29T13:23:10.353Z,82.20
2018-12-29T13:25:38.773Z,82.10
2018-12-29T13:28:07.203Z,81.90
2018-12-29T13:30:36.121Z,81.50
2018-12-29T13:33:04.586Z,81.50
2018-12-29T13:35:33.028Z,80.70
2018-12-29T13:38:01.670Z,79.70
2018-12-29T13:40:30.161Z,80.10
2018-12-29T13:42:59.105Z,79.50
2018-12-29T13:45:27.590Z,79.50
2018-12-29T13:47:56.064Z,79.40
2018-12-29T13:50:24.722Z,79.00
2018-12-29T13:52:53.199Z,78.70
2018-12-29T13:55:22.156Z,78.70
2018-12-29T13:57:50.574Z,79.00
2018-12-29T14:00:19.286Z,78.70
2018-12-29T14:02:47.723Z,78.40
2018-12-29T14:05:16.162Z,78.60
2018-12-29T14:07:44.586Z,78.80
2018-12-29T14:10:13.226Z,79.30
2018-12-29T14:12:41.706Z,80.00
2018-12-29T14:15:10.133Z,80.80
2018-12-29T14:17:38.654Z,80.80
2018-12-29T14:20:07.233Z,81.40
2018-12-29T14:22:35.741Z,81.90
2018-12-29T14:25:04.243Z,82.20
2018-12-29T14:27:32.690Z,82.40
2018-12-29T14:30:01.337Z,82.10
2018-12-29T14:32:49.158Z,82.00
2018-12-29T14:35:17.857Z,82.20
2018-12-29T14:37:46.334Z,82.70
2018-12-29T14:40:15.038Z,82.90
2018-12-29T14:42:43.498Z,83.50
2018-12-29T14:45:11.930Z,83.70
2018-12-29T14:47:40.510Z,84.00
2018-12-29T14:50:09.052Z,84.30
2018-12-29T14:52:38.300Z,84.70
2018-12-29T14:55:06.768Z,84.90
2018-12-29T14:57:35.216Z,85.00
2018-12-29T15:00:04.356Z,85.10
2018-12-29T15:02:33.144Z,85.60
2018-12-29T15:05:02.091Z,85.80
2018-12-29T15:07:30.572Z,86.20
2018-12-29T15:09:59.212Z,86.70
2018-12-29T15:12:27.686Z,86.80
2018-12-29T15:14:56.741Z,87.20
2018-12-29T15:17:25.245Z,87.80
2018-12-29T15:19:53.682Z,88.30
2018-12-29T15:22:22.187Z,88.90
2018-12-29T15:24:50.998Z,89.60
2018-12-29T15:27:19.501Z,90.00
2018-12-29T15:29:48.036Z,90.20
2018-12-29T15:32:16.744Z,90.40
2018-12-29T15:34:45.465Z,90.60
2018-12-29T15:37:13.939Z,90.70
2018-12-29T15:39:42.443Z,90.90
2018-12-29T15:42:10.880Z,91.10
2018-12-29T15:44:39.546Z,91.30
2018-12-29T15:47:08.387Z,91.60
2018-12-29T15:49:37.252Z,92.10
2018-12-29T15:52:05.717Z,92.70
2018-12-29T15:54:34.532Z,92.80
2018-12-29T15:57:02.954Z,92.80
2018-12-29T15:59:31.677Z,93.10
2018-12-29T16:02:00.173Z,93.60
2018-12-29T16:04:28.629Z,93.30
2018-12-29T16:06:57.131Z,93.30
2018-12-29T16:09:26.097Z,93.30
2018-12-29T16:11:54.934Z,93.60
2018-12-29T16:14:23.386Z,93.90
2018-12-29T16:16:52.184Z,94.10
2018-12-29T16:19:20.696Z,94.30
2018-12-29T16:21:50.241Z,94.50
2018-12-29T16:24:19.158Z,94.60
2018-12-29T16:26:47.946Z,94.60
2018-12-29T16:29:16.724Z,94.70
2018-12-29T16:31:45.230Z,94.80
2018-12-29T16:34:14.124Z,94.90
2018-12-29T16:36:42.828Z,94.90
2018-12-29T16:39:11.295Z,94.90
2018-12-29T16:41:39.740Z,95.10
2018-12-29T16:44:08.170Z,95.30
2018-12-29T16:46:36.786Z,95.60
2018-12-29T16:49:06.970Z,95.60
2018-12-29T16:51:35.452Z,95.70
2018-12-29T16:54:03.886Z,95.50
2018-12-29T16:56:32.499Z,95.40
2018-12-29T16:59:01.017Z,95.30
2018-12-29T17:01:30.274Z,95.30
2018-12-29T17:03:58.891Z,95.20
2018-12-29T17:06:29.056Z,95.30
2018-12-29T17:08:57.558Z,95.30
2018-12-29T17:11:26.075Z,95.30
2018-12-29T17:13:54.511Z,95.30
2018-12-29T17:16:23.019Z,95.40
2018-12-29T17:18:51.451Z,95.30
2018-12-29T17:21:19.963Z,95.30
2018-12-29T17:23:48.663Z,95.30
2018-12-29T17:26:17.371Z,95.30
2018-12-29T17:28:45.834Z,95.60
2018-12-29T17:31:14.547Z,95.40
2018-12-29T17:33:44.035Z,95.50
2018-12-29T17:36:12.552Z,95.60
2018-12-29T17:38:40.970Z,95.60
2018-12-29T17:41:11.300Z,95.70
2018-12-29T17:43:39.811Z,95.90
2018-12-29T17:46:08.314Z,96.10
2018-12-29T17:48:36.829Z,96.40
2018-12-29T17:51:05.518Z,96.40
2018-12-29T17:53:34.408Z,96.40
2018-12-29T17:56:02.848Z,96.30
2018-12-29T17:58:31.350Z,96.30
2018-12-29T18:00:59.858Z,96.20
2018-12-29T18:03:28.286Z,96.10
2018-12-29T18:05:56.969Z,95.90
2018-12-29T18:08:25.483Z,95.60
2018-12-29T18:10:53.983Z,95.50
2018-12-29T18:13:22.701Z,95.50
2018-12-29T18:15:51.205Z,95.50
2018-12-29T18:18:19.718Z,95.50
2018-12-29T18:20:48.281Z,95.70
2018-12-29T18:23:16.772Z,95.90
2018-12-29T18:25:45.283Z,96.20
2018-12-29T18:28:15.224Z,96.10
2018-12-29T18:30:43.723Z,96.10
2018-12-29T18:33:12.557Z,95.90
2018-12-29T18:35:40.975Z,96.00
2018-12-29T18:38:09.409Z,96.00
2018-12-29T18:40:37.843Z,95.90
2018-12-29T18:43:06.369Z,95.90
2018-12-29T18:45:35.367Z,95.90
2018-12-29T18:48:04.232Z,96.00
2018-12-29T18:50:32.741Z,95.90
2018-12-29T18:53:01.180Z,95.80
2018-12-29T18:55:29.682Z,95.70
2018-12-29T18:57:58.199Z,95.60
2018-12-29T19:00:27.099Z,95.60
2018-12-29T19:02:55.552Z,95.50
2018-12-29T19:05:23.999Z,95.50
2018-12-29T19:07:52.510Z,95.70
2018-12-29T19:10:20.936Z,95.60
2018-12-29T19:12:49.371Z,95.50
2018-12-29T19:15:18.080Z,95.40
2018-12-29T19:17:46.886Z,95.20
2018-12-29T19:20:15.803Z,95.30
2018-12-29T19:22:44.288Z,95.40
2018-12-29T19:25:12.774Z,95.50
2018-12-29T19:27:41.285Z,95.60
2018-12-29T19:30:09.799Z,95.70
2018-12-29T19:32:38.233Z,95.80
2018-12-29T19:35:06.998Z,96.00
2018-12-29T19:37:35.510Z,96.30
2018-12-29T19:40:05.704Z,96.60
2018-12-29T19:42:34.484Z,96.60
2018-12-29T19:45:03.208Z,96.60
2018-12-29T19:47:31.897Z,96.60
2018-12-29T19:50:00.850Z,96.70
2018-12-29T19:52:29.354Z,96.80
2018-12-29T19:54:57.790Z,96.90
2018-12-29T19:57:26.911Z,96.90
2018-12-29T19:59:55.390Z,96.90
2018-12-29T20:02:24.211Z,96.90
2018-12-29T20:04:52.926Z,97.00
2018-12-29T20:07:21.741Z,96.90
2018-12-29T20:09:50.271Z,96.70
2018-12-29T20:12:18.698Z,96.70
2018-12-29T20:14:47.241Z,96.60
2018-12-29T20:17:15.974Z,96.90
2018-12-29T20:19:44.620Z,96.80
2018-12-29T20:22:13.112Z,96.60
2018-12-29T20:24:41.635Z,96.40
2018-12-29T20:27:10.135Z,96.10
2018-12-29T20:29:38.578Z,96.00
2018-12-29T20:32:07.009Z,95.90
2018-12-29T20:34:36.065Z,95.90
2018-12-29T20:37:04.644Z,95.80
2018-12-29T20:39:33.154Z,95.80
2018-12-29T20:42:01.592Z,95.80
2018-12-29T20:44:30.098Z,95.80
2018-12-29T20:46:58.944Z,95.70
2018-12-29T20:49:29.497Z,95.70
2018-12-29T20:51:58.137Z,95.60
2018-12-29T20:54:26.639Z,95.70
2018-12-29T20:56:55.348Z,95.70
2018-12-29T20:59:23.862Z,95.70
2018-12-29T21:01:52.597Z,95.70
2018-12-29T21:04:21.063Z,95.70
2018-12-29T21:06:49.752Z,95.80
2018-12-29T21:09:18.218Z,95.70
2018-12-29T21:11:46.653Z,95.70
2018-12-29T21:14:15.454Z,95.50
2018-12-29T21:16:44.110Z,95.40
2018-12-29T21:19:12.571Z,95.10
2018-12-29T21:21:41.091Z,95.00
2018-12-29T21:24:12.431Z,94.80
2018-12-29T21:26:39.678Z,94.70
2018-12-29T21:29:08.330Z,94.60
2018-12-29T21:31:37.014Z,94.70
2018-12-29T21:34:05.511Z,94.60
2018-12-29T21:36:34.006Z,94.50
2018-12-29T21:39:02.598Z,94.50
2018-12-29T21:41:31.460Z,94.40
2018-12-29T21:43:59.883Z,94.20
2018-12-29T21:46:28.384Z,94.10
2018-12-29T21:48:56.813Z,94.10
2018-12-29T21:51:25.246Z,94.10
2018-12-29T21:53:53.741Z,94.00
2018-12-29T21:56:22.690Z,93.90
2018-12-29T21:58:51.126Z,94.10
2018-12-29T22:01:19.550Z,93.90
2018-12-29T22:03:48.067Z,94.00
2018-12-29T22:06:16.501Z,93.60
2018-12-29T22:08:45.014Z,93.70
2018-12-29T22:11:13.438Z,93.70
2018-12-29T22:13:41.873Z,93.70
2018-12-29T22:16:10.539Z,93.70
2018-12-29T22:18:39.049Z,93.60
2018-12-29T22:21:07.687Z,93.60
2018-12-29T22:23:36.333Z,93.60
2018-12-29T22:26:04.803Z,93.60
2018-12-29T22:28:33.460Z,93.50
2018-12-29T22:31:01.921Z,93.50
2018-12-29T22:33:30.359Z,93.50
2018-12-29T22:35:58.788Z,93.60
2018-12-29T22:38:27.441Z,93.40
2018-12-29T22:40:55.902Z,93.40
2018-12-29T22:43:24.342Z,93.30
2018-12-29T22:45:53.032Z,93.30
2018-12-29T22:48:21.773Z,93.20
2018-12-29T22:50:50.381Z,93.20
2018-12-29T22:53:19.146Z,93.50
2018-12-29T22:55:47.622Z,93.80
2018-12-29T22:58:16.037Z,94.20
2018-12-29T23:00:46.823Z,94.60
2018-12-29T23:03:16.200Z,94.80
2018-12-29T23:05:44.947Z,94.90
2018-12-29T23:08:13.578Z,95.30
2018-12-29T23:10:42.094Z,95.60
2018-12-29T23:13:10.518Z,95.90
2018-12-29T23:15:39.030Z,96.10
2018-12-29T23:18:07.453Z,96.40
2018-12-29T23:20:36.162Z,96.70
2018-12-29T23:23:04.684Z,97.20
2018-12-29T23:25:33.172Z,97.30
2018-12-29T23:28:01.593Z,97.60
2018-12-29T23:30:30.034Z,97.70
2018-12-29T23:32:58.532Z,98.00
2018-12-29T23:35:27.174Z,98.20
2018-12-29T23:37:56.013Z,98.40
2018-12-29T23:40:24.523Z,98.60
2018-12-29T23:42:53.018Z,98.90
2018-12-29T23:45:21.531Z,99.00
2018-12-29T23:47:50.248Z,99.10
2018-12-29T23:50:18.714Z,99.30
2018-12-29T23:52:47.431Z,99.30
2018-12-29T23:55:16.030Z,99.40
2018-12-29T23:57:44.465Z,99.40
